sensor_id;sensor_type;location;lat;lon;timestamp;P1;durP1;ratioP1;P2;durP2;ratioP2
75087;SDS011;63664;44.868;40.600;2023-04-28T00:00:51;7.18;;;2.53;;
75087;SDS011;63664;44.868;40.600;2023-04-28T00:03:18;6.15;;;2.38;;
75087;SDS011;63664;44.868;40.600;2023-04-28T00:05:48;4.93;;;2.38;;
75087;SDS011;63664;44.868;40.600;2023-04-28T00:08:18;4.30;;;2.30;;
75087;SDS011;63664;44.868;40.600;2023-04-28T00:13:25;6.47;;;2.50;;
75087;SDS011;63664;44.868;40.600;2023-04-28T00:15:52;4.60;;;2.50;;
75087;SDS011;63664;44.868;40.600;2023-04-28T00:18:19;6.03;;;2.55;;
75087;SDS011;63664;44.868;40.600;2023-04-28T00:20:46;5.25;;;2.47;;
75087;SDS011;63664;44.868;40.600;2023-04-28T00:23:12;4.22;;;1.92;;
75087;SDS011;63664;44.868;40.600;2023-04-28T00:25:42;6.25;;;2.38;;
75087;SDS011;63664;44.868;40.600;2023-04-28T00:28:11;3.42;;;1.88;;
75087;SDS011;63664;44.868;40.600;2023-04-28T00:30:39;5.40;;;2.38;;
75087;SDS011;63664;44.868;40.600;2023-04-28T00:33:06;4.15;;;2.00;;
75087;SDS011;63664;44.868;40.600;2023-04-28T00:35:35;6.65;;;1.73;;
75087;SDS011;63664;44.868;40.600;2023-04-28T00:38:04;9.40;;;2.15;;
75087;SDS011;63664;44.868;40.600;2023-04-28T00:40:34;4.65;;;2.55;;
75087;SDS011;63664;44.868;40.600;2023-04-28T00:43:06;6.30;;;2.50;;
75087;SDS011;63664;44.868;40.600;2023-04-28T00:45:38;7.47;;;2.47;;
75087;SDS011;63664;44.868;40.600;2023-04-28T00:48:04;4.50;;;2.00;;
75087;SDS011;63664;44.868;40.600;2023-04-28T00:50:33;3.67;;;2.10;;
75087;SDS011;63664;44.868;40.600;2023-04-28T00:52:59;4.25;;;2.13;;
75087;SDS011;63664;44.868;40.600;2023-04-28T00:55:28;4.10;;;1.77;;
75087;SDS011;63664;44.868;40.600;2023-04-28T00:57:57;4.15;;;2.42;;
75087;SDS011;63664;44.868;40.600;2023-04-28T01:00:25;4.15;;;1.80;;
75087;SDS011;63664;44.868;40.600;2023-04-28T01:02:53;7.63;;;2.20;;
75087;SDS011;63664;44.868;40.600;2023-04-28T01:05:25;4.50;;;2.15;;
75087;SDS011;63664;44.868;40.600;2023-04-28T01:07:55;3.55;;;2.28;;
75087;SDS011;63664;44.868;40.600;2023-04-28T01:10:24;4.75;;;2.15;;
75087;SDS011;63664;44.868;40.600;2023-04-28T01:12:52;5.07;;;1.95;;
75087;SDS011;63664;44.868;40.600;2023-04-28T01:15:18;3.50;;;1.95;;
75087;SDS011;63664;44.868;40.600;2023-04-28T01:17:51;5.63;;;2.47;;
75087;SDS011;63664;44.868;40.600;2023-04-28T01:20:20;8.20;;;2.67;;
75087;SDS011;63664;44.868;40.600;2023-04-28T01:22:49;3.40;;;2.47;;
75087;SDS011;63664;44.868;40.600;2023-04-28T01:25:16;5.18;;;2.03;;
75087;SDS011;63664;44.868;40.600;2023-04-28T01:27:43;4.40;;;2.30;;
75087;SDS011;63664;44.868;40.600;2023-04-28T01:30:12;2.00;;;1.50;;
75087;SDS011;63664;44.868;40.600;2023-04-28T01:32:38;4.82;;;1.63;;
75087;SDS011;63664;44.868;40.600;2023-04-28T01:35:09;2.30;;;1.60;;
75087;SDS011;63664;44.868;40.600;2023-04-28T01:37:39;2.50;;;1.70;;
75087;SDS011;63664;44.868;40.600;2023-04-28T01:40:05;3.80;;;2.05;;
75087;SDS011;63664;44.868;40.600;2023-04-28T01:42:40;4.28;;;1.67;;
75087;SDS011;63664;44.868;40.600;2023-04-28T01:45:08;3.60;;;1.48;;
75087;SDS011;63664;44.868;40.600;2023-04-28T01:47:35;2.20;;;1.65;;
75087;SDS011;63664;44.868;40.600;2023-04-28T01:50:02;3.15;;;1.67;;
75087;SDS011;63664;44.868;40.600;2023-04-28T01:52:28;5.25;;;1.80;;
75087;SDS011;63664;44.868;40.600;2023-04-28T01:54:54;3.13;;;1.58;;
75087;SDS011;63664;44.868;40.600;2023-04-28T01:57:24;4.78;;;1.88;;
75087;SDS011;63664;44.868;40.600;2023-04-28T01:59:54;5.18;;;2.25;;
75087;SDS011;63664;44.868;40.600;2023-04-28T02:02:21;2.92;;;2.03;;
75087;SDS011;63664;44.868;40.600;2023-04-28T02:04:50;7.78;;;2.03;;
75087;SDS011;63664;44.868;40.600;2023-04-28T02:07:18;7.43;;;2.40;;
75087;SDS011;63664;44.868;40.600;2023-04-28T02:09:44;4.05;;;2.10;;
75087;SDS011;63664;44.868;40.600;2023-04-28T02:12:11;3.35;;;1.95;;
75087;SDS011;63664;44.868;40.600;2023-04-28T02:14:37;2.95;;;2.22;;
75087;SDS011;63664;44.868;40.600;2023-04-28T02:17:04;4.28;;;2.17;;
75087;SDS011;63664;44.868;40.600;2023-04-28T02:19:34;3.58;;;2.13;;
75087;SDS011;63664;44.868;40.600;2023-04-28T02:22:04;3.97;;;2.13;;
75087;SDS011;63664;44.868;40.600;2023-04-28T02:24:34;5.05;;;2.45;;
75087;SDS011;63664;44.868;40.600;2023-04-28T02:27:02;3.50;;;2.45;;
75087;SDS011;63664;44.868;40.600;2023-04-28T02:29:32;7.13;;;2.22;;
75087;SDS011;63664;44.868;40.600;2023-04-28T02:32:04;5.40;;;2.40;;
75087;SDS011;63664;44.868;40.600;2023-04-28T02:34:33;8.95;;;2.75;;
75087;SDS011;63664;44.868;40.600;2023-04-28T02:37:02;3.97;;;2.13;;
75087;SDS011;63664;44.868;40.600;2023-04-28T02:39:32;8.02;;;2.70;;
75087;SDS011;63664;44.868;40.600;2023-04-28T02:41:58;4.13;;;2.67;;
75087;SDS011;63664;44.868;40.600;2023-04-28T02:44:30;3.33;;;1.98;;
75087;SDS011;63664;44.868;40.600;2023-04-28T02:46:56;5.05;;;2.42;;
75087;SDS011;63664;44.868;40.600;2023-04-28T02:49:26;5.10;;;2.00;;
75087;SDS011;63664;44.868;40.600;2023-04-28T02:51:52;3.78;;;2.08;;
75087;SDS011;63664;44.868;40.600;2023-04-28T02:54:19;3.72;;;2.05;;
75087;SDS011;63664;44.868;40.600;2023-04-28T02:57:05;2.63;;;1.92;;
75087;SDS011;63664;44.868;40.600;2023-04-28T02:59:34;4.28;;;2.30;;
75087;SDS011;63664;44.868;40.600;2023-04-28T03:02:01;5.15;;;2.15;;
75087;SDS011;63664;44.868;40.600;2023-04-28T03:04:28;3.83;;;2.10;;
75087;SDS011;63664;44.868;40.600;2023-04-28T03:06:54;6.28;;;2.10;;
75087;SDS011;63664;44.868;40.600;2023-04-28T03:09:23;3.60;;;2.25;;
75087;SDS011;63664;44.868;40.600;2023-04-28T03:11:52;5.97;;;2.25;;
75087;SDS011;63664;44.868;40.600;2023-04-28T03:14:18;3.58;;;2.33;;
75087;SDS011;63664;44.868;40.600;2023-04-28T03:16:45;4.78;;;2.28;;
75087;SDS011;63664;44.868;40.600;2023-04-28T03:19:11;3.20;;;2.08;;
75087;SDS011;63664;44.868;40.600;2023-04-28T03:21:37;6.03;;;2.28;;
75087;SDS011;63664;44.868;40.600;2023-04-28T03:24:03;3.45;;;2.58;;
75087;SDS011;63664;44.868;40.600;2023-04-28T03:26:35;3.53;;;2.22;;
75087;SDS011;63664;44.868;40.600;2023-04-28T03:29:02;3.80;;;2.28;;
75087;SDS011;63664;44.868;40.600;2023-04-28T03:31:29;3.70;;;2.30;;
75087;SDS011;63664;44.868;40.600;2023-04-28T03:33:55;4.57;;;2.50;;
75087;SDS011;63664;44.868;40.600;2023-04-28T03:36:26;5.28;;;2.50;;
75087;SDS011;63664;44.868;40.600;2023-04-28T03:39:10;5.60;;;2.25;;
75087;SDS011;63664;44.868;40.600;2023-04-28T03:41:36;8.23;;;2.55;;
75087;SDS011;63664;44.868;40.600;2023-04-28T03:44:25;5.90;;;2.33;;
75087;SDS011;63664;44.868;40.600;2023-04-28T03:46:54;2.85;;;2.05;;
75087;SDS011;63664;44.868;40.600;2023-04-28T03:49:22;3.22;;;2.15;;
75087;SDS011;63664;44.868;40.600;2023-04-28T03:51:53;3.53;;;2.08;;
75087;SDS011;63664;44.868;40.600;2023-04-28T03:54:19;6.40;;;2.22;;
75087;SDS011;63664;44.868;40.600;2023-04-28T03:56:46;5.05;;;2.28;;
75087;SDS011;63664;44.868;40.600;2023-04-28T03:59:14;4.20;;;2.20;;
75087;SDS011;63664;44.868;40.600;2023-04-28T04:01:41;3.78;;;2.15;;
75087;SDS011;63664;44.868;40.600;2023-04-28T04:04:10;4.78;;;1.67;;
75087;SDS011;63664;44.868;40.600;2023-04-28T04:06:36;2.35;;;1.70;;
75087;SDS011;63664;44.868;40.600;2023-04-28T04:09:09;4.20;;;1.98;;
75087;SDS011;63664;44.868;40.600;2023-04-28T04:11:36;3.55;;;2.03;;
75087;SDS011;63664;44.868;40.600;2023-04-28T04:14:05;3.40;;;1.77;;
75087;SDS011;63664;44.868;40.600;2023-04-28T04:16:34;3.72;;;1.80;;
75087;SDS011;63664;44.868;40.600;2023-04-28T04:19:02;3.42;;;1.88;;
75087;SDS011;63664;44.868;40.600;2023-04-28T04:21:35;4.10;;;2.08;;
75087;SDS011;63664;44.868;40.600;2023-04-28T04:24:04;2.63;;;1.60;;
75087;SDS011;63664;44.868;40.600;2023-04-28T04:26:33;3.17;;;1.80;;
75087;SDS011;63664;44.868;40.600;2023-04-28T04:29:00;4.60;;;1.77;;
75087;SDS011;63664;44.868;40.600;2023-04-28T04:31:29;3.88;;;2.13;;
75087;SDS011;63664;44.868;40.600;2023-04-28T04:33:57;2.58;;;1.90;;
75087;SDS011;63664;44.868;40.600;2023-04-28T04:36:26;3.25;;;2.20;;
75087;SDS011;63664;44.868;40.600;2023-04-28T04:38:57;4.03;;;1.85;;
75087;SDS011;63664;44.868;40.600;2023-04-28T04:41:29;3.88;;;2.13;;
75087;SDS011;63664;44.868;40.600;2023-04-28T04:44:12;3.00;;;2.15;;
75087;SDS011;63664;44.868;40.600;2023-04-28T04:46:45;3.50;;;2.42;;
75087;SDS011;63664;44.868;40.600;2023-04-28T04:49:11;3.28;;;1.70;;
75087;SDS011;63664;44.868;40.600;2023-04-28T06:46:29;2.00;;;1.67;;
75087;SDS011;63664;44.868;40.600;2023-04-28T06:48:58;2.75;;;1.92;;
75087;SDS011;63664;44.868;40.600;2023-04-28T06:51:26;3.42;;;1.77;;
75087;SDS011;63664;44.868;40.600;2023-04-28T06:53:54;2.60;;;1.75;;
75087;SDS011;63664;44.868;40.600;2023-04-28T06:56:23;1.92;;;1.50;;
75087;SDS011;63664;44.868;40.600;2023-04-28T06:58:55;2.42;;;1.73;;
75087;SDS011;63664;44.868;40.600;2023-04-28T07:01:29;3.05;;;1.90;;
75087;SDS011;63664;44.868;40.600;2023-04-28T07:03:55;5.40;;;2.35;;
75087;SDS011;63664;44.868;40.600;2023-04-28T07:06:26;3.75;;;1.38;;
75087;SDS011;63664;44.868;40.600;2023-04-28T07:08:54;2.17;;;1.60;;
75087;SDS011;63664;44.868;40.600;2023-04-28T07:11:20;2.20;;;1.75;;
75087;SDS011;63664;44.868;40.600;2023-04-28T07:13:52;3.20;;;1.58;;
75087;SDS011;63664;44.868;40.600;2023-04-28T07:16:20;1.88;;;1.65;;
75087;SDS011;63664;44.868;40.600;2023-04-28T07:18:47;2.85;;;1.67;;
75087;SDS011;63664;44.868;40.600;2023-04-28T07:21:13;3.15;;;1.52;;
75087;SDS011;63664;44.868;40.600;2023-04-28T07:23:39;2.20;;;1.35;;
75087;SDS011;63664;44.868;40.600;2023-04-28T07:26:09;3.63;;;1.83;;
75087;SDS011;63664;44.868;40.600;2023-04-28T07:28:35;5.72;;;1.98;;
75087;SDS011;63664;44.868;40.600;2023-04-28T07:31:01;2.92;;;1.95;;
75087;SDS011;63664;44.868;40.600;2023-04-28T07:33:30;8.10;;;2.10;;
75087;SDS011;63664;44.868;40.600;2023-04-28T07:35:57;5.57;;;2.22;;
75087;SDS011;63664;44.868;40.600;2023-04-28T07:38:25;2.17;;;1.80;;
75087;SDS011;63664;44.868;40.600;2023-04-28T07:40:52;2.92;;;1.80;;
75087;SDS011;63664;44.868;40.600;2023-04-28T07:43:18;4.32;;;1.83;;
75087;SDS011;63664;44.868;40.600;2023-04-28T07:45:44;2.38;;;1.60;;
75087;SDS011;63664;44.868;40.600;2023-04-28T07:48:13;2.85;;;1.80;;
75087;SDS011;63664;44.868;40.600;2023-04-28T07:50:46;3.13;;;1.80;;
75087;SDS011;63664;44.868;40.600;2023-04-28T07:53:12;3.67;;;1.88;;
75087;SDS011;63664;44.868;40.600;2023-04-28T07:55:38;4.28;;;1.98;;
75087;SDS011;63664;44.868;40.600;2023-04-28T07:58:09;4.18;;;1.80;;
75087;SDS011;63664;44.868;40.600;2023-04-28T08:00:38;4.53;;;1.52;;
75087;SDS011;63664;44.868;40.600;2023-04-28T08:03:04;3.67;;;1.58;;
75087;SDS011;63664;44.868;40.600;2023-04-28T08:05:37;2.70;;;1.95;;
75087;SDS011;63664;44.868;40.600;2023-04-28T08:08:07;4.07;;;2.20;;
75087;SDS011;63664;44.868;40.600;2023-04-28T08:10:33;3.17;;;2.05;;
75087;SDS011;63664;44.868;40.600;2023-04-28T08:13:02;4.40;;;2.13;;
75087;SDS011;63664;44.868;40.600;2023-04-28T08:15:28;2.90;;;2.10;;
75087;SDS011;63664;44.868;40.600;2023-04-28T08:17:57;2.78;;;1.70;;
75087;SDS011;63664;44.868;40.600;2023-04-28T08:20:26;2.38;;;1.90;;
75087;SDS011;63664;44.868;40.600;2023-04-28T08:22:54;4.22;;;1.48;;
75087;SDS011;63664;44.868;40.600;2023-04-28T08:25:22;3.75;;;1.92;;
75087;SDS011;63664;44.868;40.600;2023-04-28T08:27:51;3.28;;;1.40;;
75087;SDS011;63664;44.868;40.600;2023-04-28T08:30:22;4.22;;;1.65;;
75087;SDS011;63664;44.868;40.600;2023-04-28T08:32:51;3.17;;;1.83;;
75087;SDS011;63664;44.868;40.600;2023-04-28T08:35:20;3.10;;;1.45;;
75087;SDS011;63664;44.868;40.600;2023-04-28T08:37:50;1.70;;;1.50;;
75087;SDS011;63664;44.868;40.600;2023-04-28T08:40:24;3.28;;;1.30;;
75087;SDS011;63664;44.868;40.600;2023-04-28T08:42:56;2.75;;;1.63;;
75087;SDS011;63664;44.868;40.600;2023-04-28T08:45:23;2.10;;;1.20;;
75087;SDS011;63664;44.868;40.600;2023-04-28T08:47:52;3.20;;;1.63;;
75087;SDS011;63664;44.868;40.600;2023-04-28T08:50:21;4.72;;;1.38;;
75087;SDS011;63664;44.868;40.600;2023-04-28T08:52:53;1.83;;;1.40;;
75087;SDS011;63664;44.868;40.600;2023-04-28T08:55:22;4.53;;;1.52;;
75087;SDS011;63664;44.868;40.600;2023-04-28T08:57:52;1.55;;;1.40;;
75087;SDS011;63664;44.868;40.600;2023-04-28T09:00:19;2.15;;;1.58;;
75087;SDS011;63664;44.868;40.600;2023-04-28T09:02:46;3.25;;;1.60;;
75087;SDS011;63664;44.868;40.600;2023-04-28T09:05:15;3.13;;;1.40;;
75087;SDS011;63664;44.868;40.600;2023-04-28T09:07:46;2.40;;;1.02;;
75087;SDS011;63664;44.868;40.600;2023-04-28T09:10:18;1.77;;;1.00;;
75087;SDS011;63664;44.868;40.600;2023-04-28T09:12:47;3.25;;;1.25;;
75087;SDS011;63664;44.868;40.600;2023-04-28T09:17:57;2.58;;;1.08;;
75087;SDS011;63664;44.868;40.600;2023-04-28T09:20:27;1.95;;;1.15;;
75087;SDS011;63664;44.868;40.600;2023-04-28T09:23:16;2.35;;;1.13;;
75087;SDS011;63664;44.868;40.600;2023-04-28T09:26:05;1.42;;;1.25;;
75087;SDS011;63664;44.868;40.600;2023-04-28T09:28:35;1.20;;;1.05;;
75087;SDS011;63664;44.868;40.600;2023-04-28T09:31:01;1.23;;;1.02;;
75087;SDS011;63664;44.868;40.600;2023-04-28T09:33:33;1.77;;;1.30;;
75087;SDS011;63664;44.868;40.600;2023-04-28T09:36:02;1.67;;;1.10;;
75087;SDS011;63664;44.868;40.600;2023-04-28T09:41:10;3.20;;;1.30;;
75087;SDS011;63664;44.868;40.600;2023-04-28T09:43:39;1.48;;;1.15;;
75087;SDS011;63664;44.868;40.600;2023-04-28T09:46:07;2.28;;;1.08;;
75087;SDS011;63664;44.868;40.600;2023-04-28T09:48:38;4.35;;;1.60;;
75087;SDS011;63664;44.868;40.600;2023-04-28T09:51:05;1.65;;;1.27;;
75087;SDS011;63664;44.868;40.600;2023-04-28T09:53:32;2.33;;;1.23;;
75087;SDS011;63664;44.868;40.600;2023-04-28T09:56:00;1.75;;;1.30;;
75087;SDS011;63664;44.868;40.600;2023-04-28T09:58:30;2.08;;;1.50;;
75087;SDS011;63664;44.868;40.600;2023-04-28T10:01:02;1.65;;;1.00;;
75087;SDS011;63664;44.868;40.600;2023-04-28T10:03:34;3.65;;;1.38;;
75087;SDS011;63664;44.868;40.600;2023-04-28T10:06:08;1.98;;;1.20;;
75087;SDS011;63664;44.868;40.600;2023-04-28T10:08:39;2.70;;;1.30;;
75087;SDS011;63664;44.868;40.600;2023-04-28T10:11:05;3.33;;;1.33;;
75087;SDS011;63664;44.868;40.600;2023-04-28T10:13:37;5.38;;;1.65;;
75087;SDS011;63664;44.868;40.600;2023-04-28T10:16:06;1.70;;;1.33;;
75087;SDS011;63664;44.868;40.600;2023-04-28T10:18:36;2.70;;;1.45;;
75087;SDS011;63664;44.868;40.600;2023-04-28T10:21:06;3.30;;;1.60;;
75087;SDS011;63664;44.868;40.600;2023-04-28T10:23:41;5.03;;;1.88;;
75087;SDS011;63664;44.868;40.600;2023-04-28T10:27:09;3.63;;;1.65;;
75087;SDS011;63664;44.868;40.600;2023-04-28T10:29:21;4.10;;;1.63;;
75087;SDS011;63664;44.868;40.600;2023-04-28T10:34:43;3.40;;;1.90;;
75087;SDS011;63664;44.868;40.600;2023-04-28T10:37:12;2.03;;;1.23;;
75087;SDS011;63664;44.868;40.600;2023-04-28T10:42:56;2.63;;;1.50;;
75087;SDS011;63664;44.868;40.600;2023-04-28T10:46:27;3.03;;;1.60;;
75087;SDS011;63664;44.868;40.600;2023-04-28T10:58:44;1.85;;;1.23;;
75087;SDS011;63664;44.868;40.600;2023-04-28T11:01:31;1.60;;;1.10;;
75087;SDS011;63664;44.868;40.600;2023-04-28T11:04:04;2.75;;;1.75;;
75087;SDS011;63664;44.868;40.600;2023-04-28T11:16:55;1.40;;;0.88;;
75087;SDS011;63664;44.868;40.600;2023-04-28T11:19:27;2.95;;;1.05;;
75087;SDS011;63664;44.868;40.600;2023-04-28T11:21:55;3.33;;;0.82;;
75087;SDS011;63664;44.868;40.600;2023-04-28T11:24:23;4.28;;;1.00;;
75087;SDS011;63664;44.868;40.600;2023-04-28T11:26:52;4.00;;;1.02;;
75087;SDS011;63664;44.868;40.600;2023-04-28T11:29:21;1.50;;;1.00;;
75087;SDS011;63664;44.868;40.600;2023-04-28T11:32:06;1.45;;;1.10;;
75087;SDS011;63664;44.868;40.600;2023-04-28T11:34:34;1.05;;;0.95;;
75087;SDS011;63664;44.868;40.600;2023-04-28T11:37:03;2.42;;;1.17;;
75087;SDS011;63664;44.868;40.600;2023-04-28T11:39:36;1.08;;;0.82;;
75087;SDS011;63664;44.868;40.600;2023-04-28T11:42:08;2.25;;;1.17;;
75087;SDS011;63664;44.868;40.600;2023-04-28T11:44:35;4.97;;;1.05;;
75087;SDS011;63664;44.868;40.600;2023-04-28T11:47:02;1.45;;;0.90;;
75087;SDS011;63664;44.868;40.600;2023-04-28T11:49:40;5.68;;;1.10;;
75087;SDS011;63664;44.868;40.600;2023-04-28T11:52:14;2.20;;;1.23;;
75087;SDS011;63664;44.868;40.600;2023-04-28T11:54:40;1.33;;;1.00;;
75087;SDS011;63664;44.868;40.600;2023-04-28T11:57:19;1.98;;;1.02;;
75087;SDS011;63664;44.868;40.600;2023-04-28T11:59:50;1.40;;;1.10;;
75087;SDS011;63664;44.868;40.600;2023-04-28T12:02:29;1.60;;;1.00;;
75087;SDS011;63664;44.868;40.600;2023-04-28T12:05:03;2.47;;;1.02;;
75087;SDS011;63664;44.868;40.600;2023-04-28T12:07:42;1.60;;;1.25;;
75087;SDS011;63664;44.868;40.600;2023-04-28T12:10:10;1.67;;;1.20;;
75087;SDS011;63664;44.868;40.600;2023-04-28T12:12:41;1.35;;;0.93;;
75087;SDS011;63664;44.868;40.600;2023-04-28T12:15:12;2.88;;;1.58;;
75087;SDS011;63664;44.868;40.600;2023-04-28T12:17:43;1.80;;;1.23;;
75087;SDS011;63664;44.868;40.600;2023-04-28T12:20:10;2.33;;;1.73;;
75087;SDS011;63664;44.868;40.600;2023-04-28T12:22:57;1.55;;;1.10;;
75087;SDS011;63664;44.868;40.600;2023-04-28T12:25:23;2.45;;;1.20;;
75087;SDS011;63664;44.868;40.600;2023-04-28T12:28:03;1.58;;;1.10;;
75087;SDS011;63664;44.868;40.600;2023-04-28T12:30:33;2.15;;;1.00;;
75087;SDS011;63664;44.868;40.600;2023-04-28T12:33:04;2.25;;;0.93;;
75087;SDS011;63664;44.868;40.600;2023-04-28T12:35:33;2.10;;;1.02;;
75087;SDS011;63664;44.868;40.600;2023-04-28T13:01:16;1.70;;;1.20;;
75087;SDS011;63664;44.868;40.600;2023-04-28T13:03:45;1.27;;;1.08;;
75087;SDS011;63664;44.868;40.600;2023-04-28T13:06:15;1.13;;;1.02;;
75087;SDS011;63664;44.868;40.600;2023-04-28T13:08:41;1.33;;;1.00;;
75087;SDS011;63664;44.868;40.600;2023-04-28T13:11:09;2.75;;;1.20;;
75087;SDS011;63664;44.868;40.600;2023-04-28T13:13:38;5.10;;;1.08;;
75087;SDS011;63664;44.868;40.600;2023-04-28T13:16:09;2.13;;;1.10;;
75087;SDS011;63664;44.868;40.600;2023-04-28T13:18:36;1.05;;;0.95;;
75087;SDS011;63664;44.868;40.600;2023-04-28T13:21:03;4.07;;;1.17;;
75087;SDS011;63664;44.868;40.600;2023-04-28T13:23:31;1.52;;;1.20;;
75087;SDS011;63664;44.868;40.600;2023-04-28T13:26:00;1.17;;;1.00;;
75087;SDS011;63664;44.868;40.600;2023-04-28T13:28:31;1.85;;;1.10;;
75087;SDS011;63664;44.868;40.600;2023-04-28T13:31:03;3.63;;;1.20;;
75087;SDS011;63664;44.868;40.600;2023-04-28T13:33:29;3.13;;;0.93;;
75087;SDS011;63664;44.868;40.600;2023-04-28T13:35:56;2.03;;;1.17;;
75087;SDS011;63664;44.868;40.600;2023-04-28T13:40:54;2.75;;;1.10;;
75087;SDS011;63664;44.868;40.600;2023-04-28T13:43:22;3.17;;;1.10;;
75087;SDS011;63664;44.868;40.600;2023-04-28T13:45:54;2.42;;;0.75;;
75087;SDS011;63664;44.868;40.600;2023-04-28T13:48:25;2.53;;;1.30;;
75087;SDS011;63664;44.868;40.600;2023-04-28T13:50:54;1.70;;;1.13;;
75087;SDS011;63664;44.868;40.600;2023-04-28T14:44:10;4.43;;;1.67;;
75087;SDS011;63664;44.868;40.600;2023-04-28T14:46:37;5.30;;;2.20;;
75087;SDS011;63664;44.868;40.600;2023-04-28T14:49:03;4.68;;;2.63;;
75087;SDS011;63664;44.868;40.600;2023-04-28T14:51:36;6.45;;;2.75;;
75087;SDS011;63664;44.868;40.600;2023-04-28T14:54:07;8.00;;;3.30;;
75087;SDS011;63664;44.868;40.600;2023-04-28T14:56:36;2.03;;;1.45;;
75087;SDS011;63664;44.868;40.600;2023-04-28T14:59:04;2.40;;;1.90;;
75087;SDS011;63664;44.868;40.600;2023-04-28T15:01:36;3.42;;;1.90;;
75087;SDS011;63664;44.868;40.600;2023-04-28T15:04:05;5.93;;;2.30;;
75087;SDS011;63664;44.868;40.600;2023-04-28T15:06:31;9.50;;;3.03;;
75087;SDS011;63664;44.868;40.600;2023-04-28T15:08:58;5.65;;;3.10;;
75087;SDS011;63664;44.868;40.600;2023-04-28T15:11:27;6.35;;;2.50;;
75087;SDS011;63664;44.868;40.600;2023-04-28T15:13:58;9.43;;;2.42;;
75087;SDS011;63664;44.868;40.600;2023-04-28T15:16:25;13.40;;;4.45;;
75087;SDS011;63664;44.868;40.600;2023-04-28T15:18:51;8.52;;;3.30;;
75087;SDS011;63664;44.868;40.600;2023-04-28T15:21:20;7.93;;;2.38;;
75087;SDS011;63664;44.868;40.600;2023-04-28T15:23:47;3.30;;;2.22;;
75087;SDS011;63664;44.868;40.600;2023-04-28T15:26:14;10.07;;;2.20;;
75087;SDS011;63664;44.868;40.600;2023-04-28T15:28:40;8.10;;;2.60;;
75087;SDS011;63664;44.868;40.600;2023-04-28T15:31:09;5.82;;;2.00;;
75087;SDS011;63664;44.868;40.600;2023-04-28T15:33:35;4.63;;;2.53;;
75087;SDS011;63664;44.868;40.600;2023-04-28T15:46:29;5.25;;;2.90;;
75087;SDS011;63664;44.868;40.600;2023-04-28T15:48:59;10.98;;;5.03;;
75087;SDS011;63664;44.868;40.600;2023-04-28T15:51:28;5.30;;;2.72;;
75087;SDS011;63664;44.868;40.600;2023-04-28T15:53:57;3.58;;;1.83;;
75087;SDS011;63664;44.868;40.600;2023-04-28T15:56:23;3.05;;;1.95;;
75087;SDS011;63664;44.868;40.600;2023-04-28T15:58:52;2.75;;;1.95;;
75087;SDS011;63664;44.868;40.600;2023-04-28T16:01:18;4.63;;;2.42;;
75087;SDS011;63664;44.868;40.600;2023-04-28T16:03:51;7.63;;;1.92;;
75087;SDS011;63664;44.868;40.600;2023-04-28T16:06:21;6.00;;;1.40;;
75087;SDS011;63664;44.868;40.600;2023-04-28T16:08:47;3.15;;;1.80;;
75087;SDS011;63664;44.868;40.600;2023-04-28T16:11:14;4.40;;;2.00;;
75087;SDS011;63664;44.868;40.600;2023-04-28T16:13:44;14.88;;;2.30;;
75087;SDS011;63664;44.868;40.600;2023-04-28T16:16:10;5.90;;;2.00;;
75087;SDS011;63664;44.868;40.600;2023-04-28T16:18:41;3.45;;;1.40;;
75087;SDS011;63664;44.868;40.600;2023-04-28T16:21:10;4.82;;;1.60;;
75087;SDS011;63664;44.868;40.600;2023-04-28T16:23:45;4.88;;;2.15;;
75087;SDS011;63664;44.868;40.600;2023-04-28T16:26:13;4.20;;;2.28;;
75087;SDS011;63664;44.868;40.600;2023-04-28T16:28:46;5.40;;;1.92;;
75087;SDS011;63664;44.868;40.600;2023-04-28T16:31:12;4.88;;;2.72;;
75087;SDS011;63664;44.868;40.600;2023-04-28T16:33:38;4.13;;;2.53;;
75087;SDS011;63664;44.868;40.600;2023-04-28T16:36:09;7.68;;;3.15;;
75087;SDS011;63664;44.868;40.600;2023-04-28T16:38:36;7.68;;;3.50;;
75087;SDS011;63664;44.868;40.600;2023-04-28T16:41:05;7.35;;;4.15;;
75087;SDS011;63664;44.868;40.600;2023-04-28T16:43:34;4.78;;;2.65;;
75087;SDS011;63664;44.868;40.600;2023-04-28T16:46:03;5.72;;;2.80;;
75087;SDS011;63664;44.868;40.600;2023-04-28T16:48:34;5.82;;;2.53;;
75087;SDS011;63664;44.868;40.600;2023-04-28T16:51:09;7.10;;;2.65;;
75087;SDS011;63664;44.868;40.600;2023-04-28T16:53:35;5.88;;;2.53;;
75087;SDS011;63664;44.868;40.600;2023-04-28T16:56:04;3.38;;;2.35;;
75087;SDS011;63664;44.868;40.600;2023-04-28T16:58:31;4.00;;;2.03;;
75087;SDS011;63664;44.868;40.600;2023-04-28T17:00:57;3.13;;;2.10;;
75087;SDS011;63664;44.868;40.600;2023-04-28T17:03:24;5.50;;;2.75;;
75087;SDS011;63664;44.868;40.600;2023-04-28T17:05:50;8.75;;;2.40;;
75087;SDS011;63664;44.868;40.600;2023-04-28T17:08:22;5.60;;;2.75;;
75087;SDS011;63664;44.868;40.600;2023-04-28T17:10:49;7.55;;;3.25;;
75087;SDS011;63664;44.868;40.600;2023-04-28T17:13:20;8.38;;;3.40;;
75087;SDS011;63664;44.868;40.600;2023-04-28T17:15:52;6.40;;;3.35;;
75087;SDS011;63664;44.868;40.600;2023-04-28T17:18:24;4.10;;;3.15;;
75087;SDS011;63664;44.868;40.600;2023-04-28T17:20:53;4.85;;;2.90;;
75087;SDS011;63664;44.868;40.600;2023-04-28T17:23:20;7.47;;;2.70;;
75087;SDS011;63664;44.868;40.600;2023-04-28T17:25:57;5.03;;;2.95;;
75087;SDS011;63664;44.868;40.600;2023-04-28T17:28:30;3.63;;;2.92;;
75087;SDS011;63664;44.868;40.600;2023-04-28T17:31:02;12.02;;;3.90;;
75087;SDS011;63664;44.868;40.600;2023-04-28T17:33:34;7.80;;;4.38;;
75087;SDS011;63664;44.868;40.600;2023-04-28T17:36:06;6.63;;;3.63;;
75087;SDS011;63664;44.868;40.600;2023-04-28T17:38:38;5.65;;;3.28;;
75087;SDS011;63664;44.868;40.600;2023-04-28T17:41:06;6.50;;;2.63;;
75087;SDS011;63664;44.868;40.600;2023-04-28T17:43:35;6.60;;;3.55;;
75087;SDS011;63664;44.868;40.600;2023-04-28T17:46:04;4.88;;;3.20;;
75087;SDS011;63664;44.868;40.600;2023-04-28T17:48:35;4.47;;;2.17;;
75087;SDS011;63664;44.868;40.600;2023-04-28T17:51:03;4.32;;;1.70;;
75087;SDS011;63664;44.868;40.600;2023-04-28T17:53:30;4.82;;;1.92;;
75087;SDS011;63664;44.868;40.600;2023-04-28T17:56:01;4.53;;;1.80;;
75087;SDS011;63664;44.868;40.600;2023-04-28T17:58:30;4.50;;;2.10;;
75087;SDS011;63664;44.868;40.600;2023-04-28T18:01:04;4.35;;;1.90;;
75087;SDS011;63664;44.868;40.600;2023-04-28T18:03:34;3.85;;;1.17;;
75087;SDS011;63664;44.868;40.600;2023-04-28T18:06:04;1.92;;;1.15;;
75087;SDS011;63664;44.868;40.600;2023-04-28T18:08:34;3.13;;;1.35;;
75087;SDS011;63664;44.868;40.600;2023-04-28T18:11:05;3.25;;;1.10;;
75087;SDS011;63664;44.868;40.600;2023-04-28T18:13:34;3.50;;;1.42;;
75087;SDS011;63664;44.868;40.600;2023-04-28T18:16:00;4.85;;;1.70;;
75087;SDS011;63664;44.868;40.600;2023-04-28T18:18:29;6.30;;;1.70;;
75087;SDS011;63664;44.868;40.600;2023-04-28T18:20:57;2.78;;;1.30;;
75087;SDS011;63664;44.868;40.600;2023-04-28T18:23:24;3.92;;;1.33;;
75087;SDS011;63664;44.868;40.600;2023-04-28T18:25:51;6.00;;;1.40;;
75087;SDS011;63664;44.868;40.600;2023-04-28T18:28:23;3.50;;;1.50;;
75087;SDS011;63664;44.868;40.600;2023-04-28T18:30:51;5.45;;;1.55;;
75087;SDS011;63664;44.868;40.600;2023-04-28T18:33:17;2.22;;;1.50;;
75087;SDS011;63664;44.868;40.600;2023-04-28T18:35:44;5.05;;;1.80;;
75087;SDS011;63664;44.868;40.600;2023-04-28T18:38:15;8.60;;;1.42;;
75087;SDS011;63664;44.868;40.600;2023-04-28T18:40:41;4.78;;;1.90;;
75087;SDS011;63664;44.868;40.600;2023-04-28T18:43:12;6.35;;;1.80;;